createdAt,value
2018-03-27T00:01:19.307Z,37.70
2018-03-27T00:04:22.479Z,37.80
2018-03-27T00:07:26.412Z,38.00
2018-03-27T00:10:30.313Z,38.10
2018-03-27T00:13:33.480Z,38.00
2018-03-27T00:16:36.643Z,38.00
2018-03-27T00:19:40.577Z,38.10
2018-03-27T00:22:44.534Z,38.20
2018-03-27T00:25:47.681Z,38.20
2018-03-27T00:29:02.726Z,38.20
2018-03-27T00:32:17.833Z,38.20
2018-03-27T00:35:32.838Z,38.30
2018-03-27T00:38:47.866Z,38.20
2018-03-27T00:45:36.165Z,38.40
2018-03-27T00:48:39.346Z,38.50
2018-03-27T00:51:42.494Z,38.00
2018-03-27T00:54:46.431Z,38.50
2018-03-27T00:57:50.338Z,38.30
2018-03-27T01:00:54.283Z,38.30
2018-03-27T01:03:58.197Z,38.20
2018-03-27T01:07:02.140Z,38.20
2018-03-27T01:10:05.325Z,38.20
2018-03-27T01:13:09.247Z,38.80
2018-03-27T01:16:12.426Z,38.20
2018-03-27T01:19:15.568Z,38.20
2018-03-27T01:22:18.742Z,38.20
2018-03-27T01:25:21.916Z,38.30
2018-03-27T01:28:25.053Z,38.30
2018-03-27T01:31:28.222Z,38.30
2018-03-27T01:34:32.157Z,38.30
2018-03-27T01:37:35.352Z,38.30
2018-03-27T01:40:39.309Z,38.60
2018-03-27T01:43:42.481Z,38.40
2018-03-27T01:46:45.650Z,38.50
2018-03-27T01:49:48.791Z,38.20
2018-03-27T01:52:51.958Z,38.60
2018-03-27T01:55:55.130Z,38.60
2018-03-27T01:58:59.050Z,38.70
2018-03-27T02:02:03.013Z,38.80
2018-03-27T02:05:06.165Z,38.80
2018-03-27T02:08:09.339Z,38.80
2018-03-27T02:11:17.959Z,38.80
2018-03-27T02:14:26.558Z,38.80
2018-03-27T02:17:35.303Z,38.70
2018-03-27T02:20:44.907Z,38.90
2018-03-27T02:23:48.077Z,38.50
2018-03-27T02:26:52.019Z,38.30
2018-03-27T02:29:55.916Z,38.40
2018-03-27T02:32:59.097Z,38.40
2018-03-27T02:36:02.287Z,38.30
2018-03-27T02:39:05.453Z,38.30
2018-03-27T02:42:08.581Z,38.50
2018-03-27T02:45:12.514Z,38.60
2018-03-27T02:48:15.642Z,38.60
2018-03-27T02:51:18.756Z,38.60
2018-03-27T02:54:21.877Z,38.60
2018-03-27T02:57:25.008Z,38.70
2018-03-27T03:00:28.115Z,38.80
2018-03-27T03:03:31.244Z,38.60
2018-03-27T03:06:35.130Z,38.60
2018-03-27T03:09:38.265Z,38.60
2018-03-27T03:12:41.498Z,38.60
2018-03-27T03:15:45.370Z,38.70
2018-03-27T03:18:48.491Z,38.70
2018-03-27T03:21:51.598Z,38.90
2018-03-27T03:24:54.729Z,38.90
2018-03-27T03:27:58.617Z,38.90
2018-03-27T03:31:01.736Z,38.90
2018-03-27T03:34:05.002Z,38.90
2018-03-27T03:37:08.109Z,38.80
2018-03-27T03:40:11.238Z,38.80
2018-03-27T03:43:14.361Z,38.80
2018-03-27T03:46:17.461Z,38.90
2018-03-27T03:49:20.585Z,38.90
2018-03-27T03:52:23.695Z,38.90
2018-03-27T03:55:26.825Z,38.80
2018-03-27T03:58:29.961Z,38.90
2018-03-27T04:01:33.056Z,38.80
2018-03-27T04:04:36.990Z,38.90
2018-03-27T04:07:40.861Z,38.90
2018-03-27T04:10:43.980Z,38.80
2018-03-27T04:13:47.101Z,38.80
2018-03-27T04:16:50.202Z,38.90
2018-03-27T04:19:53.376Z,38.80
2018-03-27T04:22:57.209Z,38.90
2018-03-27T04:26:00.329Z,38.90
2018-03-27T04:29:03.470Z,39.00
2018-03-27T04:32:07.362Z,39.00
2018-03-27T04:35:10.478Z,38.90
2018-03-27T04:38:13.571Z,39.20
2018-03-27T04:41:16.697Z,39.20
2018-03-27T04:44:19.846Z,39.10
2018-03-27T04:47:23.711Z,39.10
2018-03-27T04:50:26.857Z,39.00
2018-03-27T04:53:29.947Z,38.90
2018-03-27T04:56:33.077Z,39.00
2018-03-27T04:59:36.201Z,38.90
2018-03-27T05:02:40.058Z,38.90
2018-03-27T05:05:43.172Z,38.80
2018-03-27T05:08:46.262Z,38.80
2018-03-27T05:11:49.385Z,38.80
2018-03-27T05:14:52.506Z,38.90
2018-03-27T05:17:55.614Z,38.90
2018-03-27T05:20:58.729Z,38.80
2018-03-27T05:24:01.970Z,38.90
2018-03-27T05:27:05.094Z,38.90
2018-03-27T05:30:08.999Z,39.00
2018-03-27T05:33:12.100Z,39.00
2018-03-27T05:36:15.216Z,39.00
2018-03-27T05:39:18.309Z,38.90
2018-03-27T05:42:21.430Z,39.00
2018-03-27T05:45:24.529Z,38.90
2018-03-27T05:48:27.646Z,39.00
2018-03-27T05:51:30.768Z,39.00
2018-03-27T05:54:34.660Z,39.20
2018-03-27T05:57:37.792Z,39.10
2018-03-27T06:00:40.893Z,39.30
2018-03-27T06:03:44.014Z,39.60
2018-03-27T06:06:47.913Z,39.10
2018-03-27T06:09:51.014Z,39.00
2018-03-27T06:12:54.137Z,39.10
2018-03-27T06:15:57.238Z,39.00
2018-03-27T06:19:00.375Z,39.10
2018-03-27T06:22:04.276Z,39.00
2018-03-27T06:25:07.407Z,39.00
2018-03-27T06:28:10.534Z,39.00
2018-03-27T06:31:14.404Z,39.00
2018-03-27T06:34:17.578Z,39.00
2018-03-27T06:37:21.438Z,39.60
2018-03-27T06:40:24.533Z,38.90
2018-03-27T06:43:27.658Z,39.00
2018-03-27T06:46:30.760Z,39.10
2018-03-27T06:49:33.881Z,39.10
2018-03-27T06:52:37.037Z,39.10
2018-03-27T06:55:40.900Z,38.70
2018-03-27T06:58:44.019Z,38.70
2018-03-27T07:01:47.113Z,38.60
2018-03-27T07:04:50.319Z,38.70
2018-03-27T07:07:53.412Z,38.80
2018-03-27T07:10:56.604Z,38.60
2018-03-27T07:13:59.797Z,38.70
2018-03-27T07:17:03.747Z,38.90
2018-03-27T07:20:06.942Z,38.80
2018-03-27T07:23:10.086Z,39.70
2018-03-27T07:26:13.193Z,38.90
2018-03-27T07:29:16.325Z,38.80
2018-03-27T07:32:19.435Z,38.60
2018-03-27T07:35:22.834Z,38.60
2018-03-27T07:38:25.997Z,38.60
2018-03-27T07:41:29.877Z,38.10
2018-03-27T07:44:33.049Z,38.10
2018-03-27T07:47:36.194Z,37.20
2018-03-27T07:50:39.293Z,37.50
2018-03-27T07:53:42.457Z,37.50
2018-03-27T07:56:45.561Z,37.50
2018-03-27T07:59:49.453Z,37.40
2018-03-27T08:02:52.609Z,37.40
2018-03-27T08:05:55.729Z,37.40
2018-03-27T08:08:58.871Z,37.30
2018-03-27T08:12:01.987Z,37.40
2018-03-27T08:15:05.142Z,37.80
2018-03-27T08:18:08.266Z,37.60
2018-03-27T08:21:11.399Z,37.50
2018-03-27T08:24:14.604Z,37.50
2018-03-27T08:27:18.424Z,37.70
2018-03-27T08:30:21.567Z,37.70
2018-03-27T08:33:24.679Z,37.80
2018-03-27T08:36:27.842Z,37.80
2018-03-27T08:39:30.957Z,38.00
2018-03-27T08:42:34.069Z,38.00
2018-03-27T08:45:37.218Z,38.00
2018-03-27T08:48:40.354Z,38.00
2018-03-27T08:51:43.482Z,37.90
2018-03-27T08:54:46.606Z,37.80
2018-03-27T08:57:49.711Z,37.70
2018-03-27T09:00:52.850Z,37.70
2018-03-27T09:03:55.947Z,37.80
2018-03-27T09:06:59.194Z,37.80
2018-03-27T09:10:03.098Z,38.00
2018-03-27T09:13:06.213Z,38.00
2018-03-27T09:16:10.135Z,38.10
2018-03-27T09:19:13.229Z,38.10
2018-03-27T09:22:17.122Z,38.40
2018-03-27T09:25:20.256Z,38.40
2018-03-27T09:28:23.364Z,38.40
2018-03-27T09:31:26.486Z,38.60
2018-03-27T09:34:29.593Z,38.70
2018-03-27T09:37:32.716Z,38.70
2018-03-27T09:40:36.606Z,38.90
2018-03-27T09:43:39.733Z,39.00
2018-03-27T09:46:42.866Z,39.10
2018-03-27T09:49:46.729Z,39.30
2018-03-27T09:52:49.845Z,39.20
2018-03-27T09:55:52.970Z,39.30
2018-03-27T09:58:56.085Z,39.40
2018-03-27T10:01:59.214Z,39.50
2018-03-27T10:05:03.082Z,39.20
2018-03-27T10:08:06.272Z,39.20
2018-03-27T10:11:09.417Z,39.00
2018-03-27T10:14:12.522Z,38.80
2018-03-27T10:17:15.638Z,38.70
2018-03-27T10:20:18.733Z,38.60
2018-03-27T10:23:21.861Z,38.50
2018-03-27T10:26:25.021Z,38.50
2018-03-27T10:29:28.130Z,38.60
2018-03-27T10:32:31.259Z,38.50
2018-03-27T10:35:34.373Z,38.60
2018-03-27T10:38:37.510Z,38.70
2018-03-27T10:41:41.558Z,38.80
2018-03-27T10:44:44.667Z,38.80
2018-03-27T10:47:47.789Z,39.10
2018-03-27T10:50:51.746Z,39.10
2018-03-27T10:53:54.866Z,39.00
2018-03-27T10:56:57.995Z,39.10
2018-03-27T11:00:01.093Z,39.10
2018-03-27T11:03:04.232Z,39.30
2018-03-27T11:06:07.339Z,39.40
2018-03-27T11:09:10.696Z,39.50
2018-03-27T11:12:14.564Z,39.60
2018-03-27T11:15:17.672Z,39.50
2018-03-27T11:18:20.798Z,39.50
2018-03-27T11:21:24.700Z,39.80
2018-03-27T11:24:27.820Z,39.80
2018-03-27T11:27:30.960Z,39.80
2018-03-27T11:30:34.082Z,39.80
2018-03-27T11:33:37.275Z,39.60
2018-03-27T11:36:40.484Z,39.50
2018-03-27T11:39:44.372Z,39.20
2018-03-27T11:42:47.516Z,39.20
2018-03-27T11:45:51.394Z,39.00
2018-03-27T11:48:54.521Z,39.10
2018-03-27T11:51:57.645Z,38.90
2018-03-27T11:55:01.543Z,39.00
2018-03-27T11:58:04.690Z,39.00
2018-03-27T12:01:07.894Z,39.10
2018-03-27T12:04:11.796Z,39.20
2018-03-27T12:07:14.890Z,39.20
2018-03-27T12:10:18.014Z,39.30
2018-03-27T12:13:21.138Z,39.40
2018-03-27T12:16:25.032Z,39.80
2018-03-27T12:19:28.158Z,39.70
2018-03-27T12:22:31.255Z,39.70
2018-03-27T12:25:34.382Z,39.80
2018-03-27T12:28:37.503Z,39.90
2018-03-27T12:31:41.461Z,40.10
2018-03-27T12:34:45.322Z,40.20
2018-03-27T12:37:48.430Z,40.20
2018-03-27T12:40:51.683Z,40.30
2018-03-27T12:43:54.803Z,40.40
2018-03-27T12:46:57.946Z,40.50
2018-03-27T12:50:01.073Z,40.70
2018-03-27T12:53:04.180Z,40.60
2018-03-27T12:56:07.311Z,40.70
2018-03-27T12:59:11.205Z,40.60
2018-03-27T13:02:14.346Z,40.60
2018-03-27T13:05:18.243Z,40.20
2018-03-27T13:08:22.115Z,40.00
2018-03-27T13:11:25.245Z,40.00
2018-03-27T13:14:28.354Z,39.80
2018-03-27T13:17:31.490Z,39.70
2018-03-27T13:20:34.625Z,39.50
2018-03-27T13:23:38.498Z,39.30
2018-03-27T13:26:41.626Z,39.30
2018-03-27T13:29:44.738Z,39.20
2018-03-27T13:32:47.876Z,39.20
2018-03-27T13:35:51.781Z,39.10
2018-03-27T13:38:54.950Z,39.10
2018-03-27T13:41:58.047Z,39.00
2018-03-27T13:45:01.154Z,39.70
2018-03-27T13:48:04.351Z,39.00
2018-03-27T13:51:07.451Z,38.80
2018-03-27T13:54:11.329Z,38.80
2018-03-27T13:57:14.458Z,38.70
2018-03-27T14:00:17.591Z,38.60
2018-03-27T14:03:21.479Z,38.10
2018-03-27T14:06:24.674Z,38.00
2018-03-27T14:09:27.791Z,37.80
2018-03-27T14:12:30.914Z,37.70
2018-03-27T14:15:34.836Z,37.40
2018-03-27T14:18:38.162Z,37.30
2018-03-27T14:21:41.382Z,37.20
2018-03-27T14:24:44.515Z,37.20
2018-03-27T14:27:47.644Z,37.20
2018-03-27T14:30:50.825Z,37.20
2018-03-27T14:33:53.967Z,37.20
2018-03-27T14:36:57.089Z,37.10
2018-03-27T14:40:00.195Z,37.40
2018-03-27T14:43:03.556Z,37.50
2018-03-27T14:46:07.419Z,37.60
2018-03-27T14:49:10.551Z,37.50
2018-03-27T14:52:13.708Z,37.60
2018-03-27T14:55:16.807Z,37.80
2018-03-27T14:58:20.694Z,37.30
2018-03-27T15:01:23.790Z,37.30
2018-03-27T15:04:26.918Z,37.30
2018-03-27T15:07:30.041Z,37.00
2018-03-27T15:10:34.032Z,36.70
2018-03-27T15:13:37.171Z,36.60
2018-03-27T15:16:40.269Z,36.60
2018-03-27T15:19:43.477Z,37.30
2018-03-27T15:22:47.393Z,37.70
2018-03-27T15:25:50.487Z,37.30
2018-03-27T15:28:53.594Z,37.00
2018-03-27T15:31:56.702Z,37.00
2018-03-27T15:34:59.826Z,37.10
2018-03-27T15:38:03.264Z,37.20
2018-03-27T15:41:06.407Z,37.00
2018-03-27T15:44:09.614Z,37.00
2018-03-27T15:47:12.806Z,37.00
2018-03-27T15:50:16.692Z,37.00
2018-03-27T15:53:19.831Z,37.00
2018-03-27T15:56:23.701Z,37.00
2018-03-27T15:59:26.836Z,37.00
2018-03-27T16:02:29.948Z,37.00
2018-03-27T16:05:33.082Z,37.10
2018-03-27T16:08:36.960Z,37.30
2018-03-27T16:11:40.080Z,37.30
2018-03-27T16:14:43.211Z,37.30
2018-03-27T16:17:46.320Z,37.40
2018-03-27T16:20:49.447Z,37.60
2018-03-27T16:23:53.313Z,37.70
2018-03-27T16:26:56.466Z,37.60
2018-03-27T16:29:59.619Z,37.50
2018-03-27T16:33:02.804Z,38.10
2018-03-27T16:36:06.833Z,37.30
2018-03-27T16:39:09.985Z,37.30
2018-03-27T16:42:13.184Z,37.30
2018-03-27T16:45:16.314Z,37.50
2018-03-27T16:48:19.418Z,37.50
2018-03-27T16:51:22.541Z,37.50
2018-03-27T16:54:25.670Z,37.50
2018-03-27T16:57:29.545Z,37.70
2018-03-27T17:00:32.742Z,37.60
2018-03-27T17:03:35.986Z,37.70
2018-03-27T17:06:39.138Z,37.70
2018-03-27T17:09:57.917Z,38.00
2018-03-27T17:13:01.790Z,38.40
2018-03-27T17:16:04.960Z,38.40
2018-03-27T17:19:08.099Z,38.30
2018-03-27T17:22:11.226Z,38.40
2018-03-27T17:25:14.345Z,38.30
2018-03-27T17:28:17.504Z,38.30
2018-03-27T17:31:20.695Z,38.10
2018-03-27T17:34:24.581Z,38.00
2018-03-27T17:37:27.730Z,37.90
2018-03-27T17:40:31.636Z,38.00
2018-03-27T17:43:35.569Z,38.40
2018-03-27T17:46:38.754Z,38.00
2018-03-27T17:49:41.856Z,38.10
2018-03-27T17:52:44.985Z,38.10
2018-03-27T17:55:48.129Z,38.20
2018-03-27T17:58:51.234Z,38.30
2018-03-27T18:01:54.370Z,38.40
2018-03-27T18:04:57.485Z,38.40
2018-03-27T18:08:00.627Z,38.50
2018-03-27T18:11:03.801Z,38.60
2018-03-27T18:14:06.901Z,38.50
2018-03-27T18:17:10.021Z,38.60
2018-03-27T18:20:13.114Z,38.60
2018-03-27T18:23:16.242Z,38.70
2018-03-27T18:26:19.465Z,38.80
2018-03-27T18:29:22.602Z,38.90
2018-03-27T18:32:25.752Z,38.90
2018-03-27T18:35:28.882Z,38.80
2018-03-27T18:38:32.014Z,38.80
2018-03-27T18:41:35.155Z,38.60
2018-03-27T18:44:38.280Z,38.60
2018-03-27T18:47:41.419Z,38.50
2018-03-27T18:50:44.530Z,38.50
2018-03-27T18:53:47.696Z,38.40
2018-03-27T18:56:50.821Z,38.20
2018-03-27T18:59:53.921Z,38.30
2018-03-27T19:02:57.045Z,38.30
2018-03-27T19:06:00.154Z,38.30
2018-03-27T19:09:03.286Z,38.30
2018-03-27T19:12:06.432Z,38.40
2018-03-27T19:15:11.019Z,38.60
2018-03-27T19:18:14.152Z,38.50
2018-03-27T19:21:17.264Z,38.70
2018-03-27T19:24:20.407Z,38.70
2018-03-27T19:27:23.510Z,38.80
2018-03-27T19:30:26.646Z,38.80
2018-03-27T19:33:29.771Z,38.90
2018-03-27T19:36:32.945Z,39.10
2018-03-27T19:39:36.076Z,40.30
2018-03-27T19:42:39.252Z,39.60
2018-03-27T19:45:42.403Z,39.80
2018-03-27T19:48:45.534Z,39.60
2018-03-27T19:51:48.642Z,39.60
2018-03-27T19:54:51.774Z,39.90
2018-03-27T19:57:54.889Z,39.80
2018-03-27T20:00:58.782Z,39.60
2018-03-27T20:04:01.923Z,39.50
2018-03-27T20:07:05.807Z,39.30
2018-03-27T20:10:08.947Z,39.30
2018-03-27T20:13:12.848Z,39.10
2018-03-27T20:16:15.971Z,39.10
2018-03-27T20:19:19.876Z,39.20
2018-03-27T20:22:22.990Z,39.10
2018-03-27T20:25:26.132Z,39.10
2018-03-27T20:28:29.245Z,39.30
2018-03-27T20:31:32.406Z,39.20
2018-03-27T20:34:35.564Z,39.20
2018-03-27T20:37:38.736Z,39.20
2018-03-27T20:40:41.861Z,39.20
2018-03-27T20:43:45.794Z,39.30
2018-03-27T20:46:50.164Z,39.20
2018-03-27T20:49:53.316Z,39.20
2018-03-27T20:52:56.471Z,39.30
2018-03-27T20:55:59.701Z,39.20
2018-03-27T20:59:02.836Z,39.20
2018-03-27T21:02:05.989Z,39.20
2018-03-27T21:05:09.098Z,39.30
2018-03-27T21:08:12.307Z,39.30
2018-03-27T21:11:15.450Z,39.30
2018-03-27T21:14:18.696Z,39.30
2018-03-27T21:17:21.902Z,39.50
2018-03-27T21:20:25.009Z,39.50
2018-03-27T21:23:28.146Z,39.40
2018-03-27T21:26:31.314Z,39.30
2018-03-27T21:29:34.426Z,39.30
2018-03-27T21:32:38.340Z,39.20
2018-03-27T21:35:41.450Z,39.20
2018-03-27T21:38:44.579Z,39.00
2018-03-27T21:41:47.716Z,38.90
2018-03-27T21:44:50.828Z,38.70
2018-03-27T21:47:53.968Z,38.60
2018-03-27T21:50:57.086Z,38.50
2018-03-27T21:54:00.217Z,38.50
2018-03-27T21:57:03.357Z,38.50
2018-03-27T22:00:07.328Z,38.60
2018-03-27T22:03:10.486Z,38.60
2018-03-27T22:06:14.370Z,38.60
2018-03-27T22:09:17.526Z,38.60
2018-03-27T22:12:20.627Z,38.70
2018-03-27T22:15:24.539Z,38.80
2018-03-27T22:18:27.677Z,38.80
2018-03-27T22:21:30.786Z,38.80
2018-03-27T22:24:33.933Z,38.80
2018-03-27T22:27:37.048Z,38.80
2018-03-27T22:30:40.174Z,38.80
2018-03-27T22:33:43.297Z,38.90
2018-03-27T22:36:47.178Z,38.90
2018-03-27T22:39:50.303Z,38.90
2018-03-27T22:42:53.457Z,39.10
2018-03-27T22:45:56.575Z,38.90
2018-03-27T22:49:00.802Z,39.50
2018-03-27T22:52:03.894Z,38.80
2018-03-27T22:55:07.796Z,38.70
2018-03-27T22:58:10.897Z,38.70
2018-03-27T23:01:14.020Z,38.60
2018-03-27T23:04:17.914Z,38.60
2018-03-27T23:07:21.014Z,38.50
2018-03-27T23:10:24.134Z,38.50
2018-03-27T23:13:27.237Z,38.50
2018-03-27T23:16:30.387Z,38.50
2018-03-27T23:19:33.512Z,38.40
2018-03-27T23:22:36.603Z,38.50
2018-03-27T23:25:40.500Z,38.60
2018-03-27T23:28:43.617Z,38.50
2018-03-27T23:31:46.743Z,38.60
2018-03-27T23:34:50.639Z,38.60
2018-03-27T23:37:53.755Z,38.60
2018-03-27T23:40:56.909Z,38.70
2018-03-27T23:44:00.012Z,38.70
2018-03-27T23:47:03.254Z,38.70
2018-03-27T23:50:06.435Z,38.60
2018-03-27T23:53:10.272Z,38.80
2018-03-27T23:56:13.401Z,38.70
2018-03-27T23:59:16.511Z,38.70
